sensor_id;sensor_type;location;lat;lon;timestamp;P1;durP1;ratioP1;P2;durP2;ratioP2
434;SDS011;204;48.942;9.256;2024-01-30T00:01:04;19.08;;;17.48;;
434;SDS011;204;48.942;9.256;2024-01-30T00:03:30;19.30;;;15.40;;
434;SDS011;204;48.942;9.256;2024-01-30T00:05:55;19.40;;;15.67;;
434;SDS011;204;48.942;9.256;2024-01-30T00:08:21;18.10;;;16.10;;
434;SDS011;204;48.942;9.256;2024-01-30T00:10:46;17.50;;;15.07;;
434;SDS011;204;48.942;9.256;2024-01-30T00:13:12;17.83;;;15.47;;
434;SDS011;204;48.942;9.256;2024-01-30T00:15:39;15.57;;;14.77;;
434;SDS011;204;48.942;9.256;2024-01-30T00:18:04;16.87;;;15.30;;
434;SDS011;204;48.942;9.256;2024-01-30T00:20:30;14.60;;;13.87;;
434;SDS011;204;48.942;9.256;2024-01-30T00:22:55;14.97;;;13.50;;
434;SDS011;204;48.942;9.256;2024-01-30T00:25:21;14.30;;;13.60;;
434;SDS011;204;48.942;9.256;2024-01-30T00:27:46;14.43;;;13.00;;
434;SDS011;204;48.942;9.256;2024-01-30T00:30:12;13.20;;;12.50;;
434;SDS011;204;48.942;9.256;2024-01-30T00:32:38;14.02;;;13.32;;
434;SDS011;204;48.942;9.256;2024-01-30T00:35:04;13.97;;;13.27;;
434;SDS011;204;48.942;9.256;2024-01-30T00:37:30;15.25;;;13.35;;
434;SDS011;204;48.942;9.256;2024-01-30T00:39:56;15.50;;;13.48;;
434;SDS011;204;48.942;9.256;2024-01-30T00:42:22;14.10;;;13.40;;
434;SDS011;204;48.942;9.256;2024-01-30T00:44:49;16.60;;;14.18;;
434;SDS011;204;48.942;9.256;2024-01-30T00:47:14;13.73;;;12.70;;
434;SDS011;204;48.942;9.256;2024-01-30T00:49:40;13.17;;;12.47;;
434;SDS011;204;48.942;9.256;2024-01-30T00:52:05;13.60;;;12.90;;
434;SDS011;204;48.942;9.256;2024-01-30T00:54:31;13.47;;;12.77;;
434;SDS011;204;48.942;9.256;2024-01-30T00:56:56;12.93;;;11.60;;
434;SDS011;204;48.942;9.256;2024-01-30T00:59:22;13.37;;;12.67;;
434;SDS011;204;48.942;9.256;2024-01-30T01:01:48;12.80;;;12.10;;
434;SDS011;204;48.942;9.256;2024-01-30T01:04:13;15.77;;;14.83;;
434;SDS011;204;48.942;9.256;2024-01-30T01:06:39;12.77;;;12.10;;
434;SDS011;204;48.942;9.256;2024-01-30T01:09:07;13.73;;;13.02;;
434;SDS011;204;48.942;9.256;2024-01-30T01:11:33;12.73;;;12.03;;
434;SDS011;204;48.942;9.256;2024-01-30T01:13:58;15.10;;;13.87;;
434;SDS011;204;48.942;9.256;2024-01-30T01:16:24;14.30;;;12.73;;
434;SDS011;204;48.942;9.256;2024-01-30T01:18:49;14.70;;;13.10;;
434;SDS011;204;48.942;9.256;2024-01-30T01:21:15;13.13;;;12.43;;
434;SDS011;204;48.942;9.256;2024-01-30T01:23:41;13.63;;;12.93;;
434;SDS011;204;48.942;9.256;2024-01-30T01:26:07;15.90;;;13.77;;
434;SDS011;204;48.942;9.256;2024-01-30T01:28:34;15.43;;;13.00;;
434;SDS011;204;48.942;9.256;2024-01-30T01:31:00;13.80;;;12.57;;
434;SDS011;204;48.942;9.256;2024-01-30T01:33:30;13.63;;;12.95;;
434;SDS011;204;48.942;9.256;2024-01-30T01:35:57;15.75;;;13.23;;
434;SDS011;204;48.942;9.256;2024-01-30T01:38:23;18.00;;;13.83;;
434;SDS011;204;48.942;9.256;2024-01-30T01:40:49;13.03;;;12.30;;
434;SDS011;204;48.942;9.256;2024-01-30T01:43:14;13.27;;;12.57;;
434;SDS011;204;48.942;9.256;2024-01-30T01:45:40;14.17;;;12.70;;
434;SDS011;204;48.942;9.256;2024-01-30T01:48:05;17.40;;;12.70;;
434;SDS011;204;48.942;9.256;2024-01-30T01:50:33;12.43;;;11.82;;
434;SDS011;204;48.942;9.256;2024-01-30T01:52:58;12.30;;;11.70;;
434;SDS011;204;48.942;9.256;2024-01-30T01:55:24;14.93;;;12.37;;
434;SDS011;204;48.942;9.256;2024-01-30T01:57:52;20.55;;;13.30;;
434;SDS011;204;48.942;9.256;2024-01-30T02:00:18;12.50;;;11.63;;
434;SDS011;204;48.942;9.256;2024-01-30T02:02:45;13.00;;;12.30;;
434;SDS011;204;48.942;9.256;2024-01-30T02:05:11;13.45;;;11.95;;
434;SDS011;204;48.942;9.256;2024-01-30T02:07:37;14.53;;;11.43;;
434;SDS011;204;48.942;9.256;2024-01-30T02:10:03;13.00;;;11.80;;
434;SDS011;204;48.942;9.256;2024-01-30T02:12:29;17.10;;;13.17;;
434;SDS011;204;48.942;9.256;2024-01-30T02:14:55;12.93;;;11.80;;
434;SDS011;204;48.942;9.256;2024-01-30T02:17:20;12.23;;;11.63;;
434;SDS011;204;48.942;9.256;2024-01-30T02:19:48;13.15;;;12.45;;
434;SDS011;204;48.942;9.256;2024-01-30T02:22:14;12.63;;;11.37;;
434;SDS011;204;48.942;9.256;2024-01-30T02:24:39;11.97;;;11.20;;
434;SDS011;204;48.942;9.256;2024-01-30T02:27:05;11.80;;;11.20;;
434;SDS011;204;48.942;9.256;2024-01-30T02:29:31;13.00;;;12.30;;
434;SDS011;204;48.942;9.256;2024-01-30T02:31:56;13.03;;;12.33;;
434;SDS011;204;48.942;9.256;2024-01-30T02:34:22;12.33;;;11.40;;
434;SDS011;204;48.942;9.256;2024-01-30T02:36:48;13.43;;;12.73;;
434;SDS011;204;48.942;9.256;2024-01-30T02:39:14;13.70;;;12.50;;
434;SDS011;204;48.942;9.256;2024-01-30T02:41:39;14.10;;;13.07;;
434;SDS011;204;48.942;9.256;2024-01-30T02:44:05;12.03;;;11.37;;
434;SDS011;204;48.942;9.256;2024-01-30T02:46:31;14.33;;;11.97;;
434;SDS011;204;48.942;9.256;2024-01-30T02:48:56;12.13;;;11.53;;
434;SDS011;204;48.942;9.256;2024-01-30T02:51:22;11.53;;;10.93;;
434;SDS011;204;48.942;9.256;2024-01-30T02:53:47;11.70;;;11.10;;
434;SDS011;204;48.942;9.256;2024-01-30T02:56:13;13.20;;;11.70;;
434;SDS011;204;48.942;9.256;2024-01-30T02:58:39;13.13;;;12.37;;
434;SDS011;204;48.942;9.256;2024-01-30T03:01:05;12.82;;;11.10;;
434;SDS011;204;48.942;9.256;2024-01-30T03:03:31;12.90;;;11.85;;
434;SDS011;204;48.942;9.256;2024-01-30T03:05:59;12.15;;;11.55;;
434;SDS011;204;48.942;9.256;2024-01-30T03:08:24;11.47;;;10.87;;
434;SDS011;204;48.942;9.256;2024-01-30T03:10:50;12.63;;;12.00;;
434;SDS011;204;48.942;9.256;2024-01-30T03:13:15;11.53;;;10.93;;
434;SDS011;204;48.942;9.256;2024-01-30T03:15:41;11.63;;;10.93;;
434;SDS011;204;48.942;9.256;2024-01-30T03:18:06;14.07;;;11.70;;
434;SDS011;204;48.942;9.256;2024-01-30T03:20:32;12.70;;;11.90;;
434;SDS011;204;48.942;9.256;2024-01-30T03:22:59;12.40;;;11.80;;
434;SDS011;204;48.942;9.256;2024-01-30T03:25:25;11.52;;;10.93;;
434;SDS011;204;48.942;9.256;2024-01-30T03:27:51;11.63;;;11.07;;
434;SDS011;204;48.942;9.256;2024-01-30T03:30:16;11.93;;;11.33;;
434;SDS011;204;48.942;9.256;2024-01-30T03:32:42;12.60;;;11.93;;
434;SDS011;204;48.942;9.256;2024-01-30T03:35:08;16.17;;;13.00;;
434;SDS011;204;48.942;9.256;2024-01-30T03:37:34;12.18;;;11.52;;
434;SDS011;204;48.942;9.256;2024-01-30T03:40:01;13.17;;;12.00;;
434;SDS011;204;48.942;9.256;2024-01-30T03:42:27;12.85;;;12.15;;
434;SDS011;204;48.942;9.256;2024-01-30T03:44:52;13.37;;;12.20;;
434;SDS011;204;48.942;9.256;2024-01-30T03:47:18;11.93;;;11.32;;
434;SDS011;204;48.942;9.256;2024-01-30T03:49:45;14.00;;;11.65;;
434;SDS011;204;48.942;9.256;2024-01-30T03:52:10;12.97;;;12.27;;
434;SDS011;204;48.942;9.256;2024-01-30T03:54:36;12.13;;;11.53;;
434;SDS011;204;48.942;9.256;2024-01-30T03:57:02;12.27;;;11.60;;
434;SDS011;204;48.942;9.256;2024-01-30T03:59:27;12.87;;;12.10;;
434;SDS011;204;48.942;9.256;2024-01-30T04:01:53;12.03;;;11.43;;
434;SDS011;204;48.942;9.256;2024-01-30T04:04:19;13.00;;;12.30;;
434;SDS011;204;48.942;9.256;2024-01-30T04:06:44;13.10;;;12.40;;
434;SDS011;204;48.942;9.256;2024-01-30T04:09:11;13.05;;;11.98;;
434;SDS011;204;48.942;9.256;2024-01-30T04:11:38;15.70;;;12.93;;
434;SDS011;204;48.942;9.256;2024-01-30T04:14:04;12.00;;;11.40;;
434;SDS011;204;48.942;9.256;2024-01-30T04:16:30;16.07;;;11.80;;
434;SDS011;204;48.942;9.256;2024-01-30T04:18:55;11.60;;;11.00;;
434;SDS011;204;48.942;9.256;2024-01-30T04:21:21;10.73;;;10.17;;
434;SDS011;204;48.942;9.256;2024-01-30T04:23:47;12.93;;;11.27;;
434;SDS011;204;48.942;9.256;2024-01-30T04:26:13;13.73;;;11.73;;
434;SDS011;204;48.942;9.256;2024-01-30T04:28:41;15.73;;;12.53;;
434;SDS011;204;48.942;9.256;2024-01-30T04:31:06;17.88;;;13.45;;
434;SDS011;204;48.942;9.256;2024-01-30T04:33:32;13.50;;;12.80;;
434;SDS011;204;48.942;9.256;2024-01-30T04:35:58;15.27;;;12.60;;
434;SDS011;204;48.942;9.256;2024-01-30T04:38:23;15.73;;;12.73;;
434;SDS011;204;48.942;9.256;2024-01-30T04:40:49;16.30;;;13.47;;
434;SDS011;204;48.942;9.256;2024-01-30T04:43:14;19.03;;;13.90;;
434;SDS011;204;48.942;9.256;2024-01-30T04:45:40;14.20;;;13.02;;
434;SDS011;204;48.942;9.256;2024-01-30T04:48:06;19.87;;;13.67;;
434;SDS011;204;48.942;9.256;2024-01-30T04:50:32;14.75;;;13.50;;
434;SDS011;204;48.942;9.256;2024-01-30T04:52:58;15.70;;;12.60;;
434;SDS011;204;48.942;9.256;2024-01-30T04:55:23;15.60;;;13.57;;
434;SDS011;204;48.942;9.256;2024-01-30T04:57:49;17.20;;;13.60;;
434;SDS011;204;48.942;9.256;2024-01-30T05:00:15;16.93;;;14.13;;
434;SDS011;204;48.942;9.256;2024-01-30T05:02:41;16.10;;;12.87;;
434;SDS011;204;48.942;9.256;2024-01-30T05:05:06;14.33;;;12.90;;
434;SDS011;204;48.942;9.256;2024-01-30T05:07:32;17.48;;;12.98;;
434;SDS011;204;48.942;9.256;2024-01-30T05:09:59;16.63;;;13.23;;
434;SDS011;204;48.942;9.256;2024-01-30T05:12:25;15.53;;;14.60;;
434;SDS011;204;48.942;9.256;2024-01-30T05:14:51;20.25;;;14.80;;
434;SDS011;204;48.942;9.256;2024-01-30T05:17:16;17.70;;;14.40;;
434;SDS011;204;48.942;9.256;2024-01-30T05:19:43;15.80;;;15.00;;
434;SDS011;204;48.942;9.256;2024-01-30T05:22:09;15.70;;;14.20;;
434;SDS011;204;48.942;9.256;2024-01-30T05:24:35;13.23;;;12.40;;
434;SDS011;204;48.942;9.256;2024-01-30T05:27:02;12.88;;;12.07;;
434;SDS011;204;48.942;9.256;2024-01-30T05:29:27;14.83;;;13.13;;
434;SDS011;204;48.942;9.256;2024-01-30T05:31:53;15.17;;;13.07;;
434;SDS011;204;48.942;9.256;2024-01-30T05:34:18;15.30;;;11.93;;
434;SDS011;204;48.942;9.256;2024-01-30T05:36:44;14.10;;;13.40;;
434;SDS011;204;48.942;9.256;2024-01-30T05:39:09;13.13;;;12.43;;
434;SDS011;204;48.942;9.256;2024-01-30T05:41:35;14.00;;;12.57;;
434;SDS011;204;48.942;9.256;2024-01-30T05:44:01;14.07;;;13.00;;
434;SDS011;204;48.942;9.256;2024-01-30T05:46:26;13.27;;;12.07;;
434;SDS011;204;48.942;9.256;2024-01-30T05:48:52;18.27;;;13.27;;
434;SDS011;204;48.942;9.256;2024-01-30T05:51:18;14.57;;;13.90;;
434;SDS011;204;48.942;9.256;2024-01-30T05:53:43;14.13;;;13.30;;
434;SDS011;204;48.942;9.256;2024-01-30T05:56:09;12.53;;;11.90;;
434;SDS011;204;48.942;9.256;2024-01-30T05:58:35;14.23;;;13.03;;
434;SDS011;204;48.942;9.256;2024-01-30T06:01:02;13.90;;;13.18;;
434;SDS011;204;48.942;9.256;2024-01-30T06:03:31;13.93;;;12.77;;
434;SDS011;204;48.942;9.256;2024-01-30T06:05:57;14.27;;;13.53;;
434;SDS011;204;48.942;9.256;2024-01-30T06:08:22;15.80;;;13.60;;
434;SDS011;204;48.942;9.256;2024-01-30T06:10:48;14.33;;;12.63;;
434;SDS011;204;48.942;9.256;2024-01-30T06:13:14;13.83;;;13.17;;
434;SDS011;204;48.942;9.256;2024-01-30T06:15:39;12.77;;;12.03;;
434;SDS011;204;48.942;9.256;2024-01-30T06:18:05;14.27;;;12.33;;
434;SDS011;204;48.942;9.256;2024-01-30T06:20:30;14.50;;;12.70;;
434;SDS011;204;48.942;9.256;2024-01-30T06:22:56;13.87;;;13.17;;
434;SDS011;204;48.942;9.256;2024-01-30T06:25:21;13.13;;;11.80;;
434;SDS011;204;48.942;9.256;2024-01-30T06:27:47;13.03;;;12.27;;
434;SDS011;204;48.942;9.256;2024-01-30T06:30:12;16.47;;;13.63;;
434;SDS011;204;48.942;9.256;2024-01-30T06:32:38;12.20;;;11.30;;
434;SDS011;204;48.942;9.256;2024-01-30T06:35:04;14.73;;;12.57;;
434;SDS011;204;48.942;9.256;2024-01-30T06:37:30;15.68;;;11.63;;
434;SDS011;204;48.942;9.256;2024-01-30T06:39:56;13.90;;;12.43;;
434;SDS011;204;48.942;9.256;2024-01-30T06:42:22;13.70;;;13.00;;
434;SDS011;204;48.942;9.256;2024-01-30T06:44:47;16.90;;;13.57;;
434;SDS011;204;48.942;9.256;2024-01-30T06:47:13;14.17;;;13.40;;
434;SDS011;204;48.942;9.256;2024-01-30T06:49:38;13.57;;;12.87;;
434;SDS011;204;48.942;9.256;2024-01-30T06:52:07;17.00;;;13.82;;
434;SDS011;204;48.942;9.256;2024-01-30T06:54:33;20.25;;;13.50;;
434;SDS011;204;48.942;9.256;2024-01-30T06:56:59;16.95;;;13.45;;
434;SDS011;204;48.942;9.256;2024-01-30T06:59:25;17.70;;;14.38;;
434;SDS011;204;48.942;9.256;2024-01-30T07:01:50;23.00;;;15.30;;
434;SDS011;204;48.942;9.256;2024-01-30T07:04:16;15.27;;;14.40;;
434;SDS011;204;48.942;9.256;2024-01-30T07:06:43;22.38;;;16.27;;
434;SDS011;204;48.942;9.256;2024-01-30T07:09:08;16.93;;;15.90;;
434;SDS011;204;48.942;9.256;2024-01-30T07:11:34;13.80;;;13.13;;
434;SDS011;204;48.942;9.256;2024-01-30T07:14:00;13.30;;;12.30;;
434;SDS011;204;48.942;9.256;2024-01-30T07:16:28;14.30;;;13.05;;
434;SDS011;204;48.942;9.256;2024-01-30T07:18:54;14.53;;;13.13;;
434;SDS011;204;48.942;9.256;2024-01-30T07:21:19;14.17;;;13.47;;
434;SDS011;204;48.942;9.256;2024-01-30T07:23:46;14.90;;;14.10;;
434;SDS011;204;48.942;9.256;2024-01-30T07:26:12;16.40;;;14.47;;
434;SDS011;204;48.942;9.256;2024-01-30T07:28:38;14.67;;;12.97;;
434;SDS011;204;48.942;9.256;2024-01-30T07:31:03;19.67;;;18.67;;
434;SDS011;204;48.942;9.256;2024-01-30T07:33:29;21.07;;;18.17;;
434;SDS011;204;48.942;9.256;2024-01-30T07:35:54;15.83;;;15.03;;
434;SDS011;204;48.942;9.256;2024-01-30T07:38:20;16.80;;;15.67;;
434;SDS011;204;48.942;9.256;2024-01-30T07:40:45;17.43;;;15.43;;
434;SDS011;204;48.942;9.256;2024-01-30T07:43:12;15.45;;;14.68;;
434;SDS011;204;48.942;9.256;2024-01-30T07:45:37;18.30;;;15.43;;
434;SDS011;204;48.942;9.256;2024-01-30T07:48:07;18.60;;;14.82;;
434;SDS011;204;48.942;9.256;2024-01-30T07:50:32;15.98;;;15.13;;
434;SDS011;204;48.942;9.256;2024-01-30T07:52:59;18.23;;;15.70;;
434;SDS011;204;48.942;9.256;2024-01-30T07:55:25;18.50;;;16.52;;
434;SDS011;204;48.942;9.256;2024-01-30T07:57:54;19.73;;;15.07;;
434;SDS011;204;48.942;9.256;2024-01-30T08:00:20;16.77;;;14.00;;
434;SDS011;204;48.942;9.256;2024-01-30T08:02:46;19.63;;;14.07;;
434;SDS011;204;48.942;9.256;2024-01-30T08:05:12;18.63;;;15.45;;
434;SDS011;204;48.942;9.256;2024-01-30T08:07:40;17.30;;;14.98;;
434;SDS011;204;48.942;9.256;2024-01-30T08:10:06;16.92;;;14.45;;
434;SDS011;204;48.942;9.256;2024-01-30T08:12:32;16.35;;;14.65;;
434;SDS011;204;48.942;9.256;2024-01-30T08:14:58;15.60;;;13.13;;
434;SDS011;204;48.942;9.256;2024-01-30T08:17:23;13.83;;;13.13;;
434;SDS011;204;48.942;9.256;2024-01-30T08:19:49;15.10;;;13.03;;
434;SDS011;204;48.942;9.256;2024-01-30T08:22:14;17.23;;;12.67;;
434;SDS011;204;48.942;9.256;2024-01-30T08:24:40;13.90;;;13.23;;
434;SDS011;204;48.942;9.256;2024-01-30T08:27:06;14.85;;;13.65;;
434;SDS011;204;48.942;9.256;2024-01-30T08:29:35;14.13;;;13.43;;
434;SDS011;204;48.942;9.256;2024-01-30T08:32:00;23.58;;;12.77;;
434;SDS011;204;48.942;9.256;2024-01-30T08:34:26;13.27;;;12.57;;
434;SDS011;204;48.942;9.256;2024-01-30T08:36:52;15.03;;;13.00;;
434;SDS011;204;48.942;9.256;2024-01-30T08:39:17;14.63;;;12.27;;
434;SDS011;204;48.942;9.256;2024-01-30T08:41:43;15.40;;;14.43;;
434;SDS011;204;48.942;9.256;2024-01-30T08:44:09;13.03;;;12.30;;
434;SDS011;204;48.942;9.256;2024-01-30T08:46:36;14.77;;;12.35;;
434;SDS011;204;48.942;9.256;2024-01-30T08:49:02;13.13;;;11.33;;
434;SDS011;204;48.942;9.256;2024-01-30T08:51:29;12.25;;;10.60;;
434;SDS011;204;48.942;9.256;2024-01-30T08:53:54;10.10;;;9.60;;
434;SDS011;204;48.942;9.256;2024-01-30T08:56:20;14.03;;;11.30;;
434;SDS011;204;48.942;9.256;2024-01-30T08:58:46;10.33;;;9.83;;
434;SDS011;204;48.942;9.256;2024-01-30T09:01:11;10.40;;;9.37;;
434;SDS011;204;48.942;9.256;2024-01-30T09:03:37;12.43;;;10.40;;
434;SDS011;204;48.942;9.256;2024-01-30T09:06:08;18.50;;;9.20;;
434;SDS011;204;48.942;9.256;2024-01-30T09:08:34;11.82;;;9.60;;
434;SDS011;204;48.942;9.256;2024-01-30T09:10:59;12.70;;;10.50;;
434;SDS011;204;48.942;9.256;2024-01-30T09:13:25;12.30;;;11.70;;
434;SDS011;204;48.942;9.256;2024-01-30T09:15:50;15.50;;;13.60;;
434;SDS011;204;48.942;9.256;2024-01-30T09:18:16;16.53;;;13.00;;
434;SDS011;204;48.942;9.256;2024-01-30T09:20:41;15.07;;;12.80;;
434;SDS011;204;48.942;9.256;2024-01-30T09:23:07;15.07;;;11.07;;
434;SDS011;204;48.942;9.256;2024-01-30T09:25:33;11.90;;;10.63;;
434;SDS011;204;48.942;9.256;2024-01-30T09:27:59;13.02;;;10.43;;
434;SDS011;204;48.942;9.256;2024-01-30T09:30:24;13.50;;;9.73;;
434;SDS011;204;48.942;9.256;2024-01-30T09:32:50;12.27;;;11.70;;
434;SDS011;204;48.942;9.256;2024-01-30T09:35:16;12.90;;;11.73;;
434;SDS011;204;48.942;9.256;2024-01-30T09:37:41;11.97;;;10.50;;
434;SDS011;204;48.942;9.256;2024-01-30T09:40:07;12.13;;;11.13;;
434;SDS011;204;48.942;9.256;2024-01-30T09:42:34;13.13;;;11.23;;
434;SDS011;204;48.942;9.256;2024-01-30T09:45:01;13.10;;;11.98;;
434;SDS011;204;48.942;9.256;2024-01-30T09:47:40;14.95;;;11.52;;
434;SDS011;204;48.942;9.256;2024-01-30T09:50:08;14.18;;;12.00;;
434;SDS011;204;48.942;9.256;2024-01-30T09:52:35;12.55;;;10.88;;
434;SDS011;204;48.942;9.256;2024-01-30T09:55:01;23.27;;;13.82;;
434;SDS011;204;48.942;9.256;2024-01-30T09:57:27;14.73;;;11.43;;
434;SDS011;204;48.942;9.256;2024-01-30T09:59:53;14.27;;;10.10;;
434;SDS011;204;48.942;9.256;2024-01-30T10:02:22;12.00;;;9.57;;
434;SDS011;204;48.942;9.256;2024-01-30T10:04:48;12.63;;;9.90;;
434;SDS011;204;48.942;9.256;2024-01-30T10:07:15;10.25;;;9.75;;
434;SDS011;204;48.942;9.256;2024-01-30T10:09:41;11.35;;;10.65;;
434;SDS011;204;48.942;9.256;2024-01-30T10:12:07;10.20;;;9.50;;
434;SDS011;204;48.942;9.256;2024-01-30T10:14:34;10.35;;;8.98;;
434;SDS011;204;48.942;9.256;2024-01-30T10:17:03;10.90;;;9.90;;
434;SDS011;204;48.942;9.256;2024-01-30T10:19:29;10.75;;;10.15;;
434;SDS011;204;48.942;9.256;2024-01-30T10:21:54;9.07;;;8.53;;
434;SDS011;204;48.942;9.256;2024-01-30T10:24:23;10.73;;;10.00;;
434;SDS011;204;48.942;9.256;2024-01-30T10:26:49;11.75;;;10.35;;
434;SDS011;204;48.942;9.256;2024-01-30T10:29:15;11.63;;;9.90;;
434;SDS011;204;48.942;9.256;2024-01-30T10:31:42;11.00;;;8.77;;
434;SDS011;204;48.942;9.256;2024-01-30T10:34:07;10.00;;;8.50;;
434;SDS011;204;48.942;9.256;2024-01-30T10:36:33;11.97;;;8.70;;
434;SDS011;204;48.942;9.256;2024-01-30T10:39:06;9.27;;;8.77;;
434;SDS011;204;48.942;9.256;2024-01-30T10:41:32;10.03;;;9.53;;
434;SDS011;204;48.942;9.256;2024-01-30T10:44:10;10.05;;;9.25;;
434;SDS011;204;48.942;9.256;2024-01-30T10:46:39;8.82;;;8.30;;
434;SDS011;204;48.942;9.256;2024-01-30T10:49:10;10.75;;;9.45;;
434;SDS011;204;48.942;9.256;2024-01-30T10:51:38;9.95;;;9.45;;
434;SDS011;204;48.942;9.256;2024-01-30T10:54:05;10.43;;;9.90;;
434;SDS011;204;48.942;9.256;2024-01-30T10:56:32;11.73;;;9.98;;
434;SDS011;204;48.942;9.256;2024-01-30T10:58:58;17.83;;;10.23;;
434;SDS011;204;48.942;9.256;2024-01-30T11:01:24;13.60;;;9.60;;
434;SDS011;204;48.942;9.256;2024-01-30T11:03:51;9.70;;;8.75;;
434;SDS011;204;48.942;9.256;2024-01-30T11:06:18;13.93;;;8.77;;
434;SDS011;204;48.942;9.256;2024-01-30T11:08:46;9.00;;;8.50;;
434;SDS011;204;48.942;9.256;2024-01-30T11:11:24;11.70;;;9.32;;
434;SDS011;204;48.942;9.256;2024-01-30T11:13:50;10.10;;;9.10;;
434;SDS011;204;48.942;9.256;2024-01-30T11:16:16;9.65;;;9.10;;
434;SDS011;204;48.942;9.256;2024-01-30T11:18:42;17.73;;;9.67;;
434;SDS011;204;48.942;9.256;2024-01-30T11:21:07;8.23;;;7.83;;
434;SDS011;204;48.942;9.256;2024-01-30T11:23:33;9.43;;;8.00;;
434;SDS011;204;48.942;9.256;2024-01-30T11:25:59;10.30;;;8.30;;
434;SDS011;204;48.942;9.256;2024-01-30T11:28:25;11.13;;;8.80;;
434;SDS011;204;48.942;9.256;2024-01-30T11:31:05;9.95;;;8.63;;
434;SDS011;204;48.942;9.256;2024-01-30T11:33:36;10.85;;;8.98;;
434;SDS011;204;48.942;9.256;2024-01-30T11:36:02;9.93;;;8.17;;
434;SDS011;204;48.942;9.256;2024-01-30T11:38:31;14.15;;;9.43;;
434;SDS011;204;48.942;9.256;2024-01-30T11:40:57;11.73;;;8.30;;
434;SDS011;204;48.942;9.256;2024-01-30T11:43:23;10.57;;;9.60;;
434;SDS011;204;48.942;9.256;2024-01-30T11:45:49;11.60;;;10.05;;
434;SDS011;204;48.942;9.256;2024-01-30T11:48:16;11.07;;;10.15;;
434;SDS011;204;48.942;9.256;2024-01-30T11:50:42;13.20;;;9.60;;
434;SDS011;204;48.942;9.256;2024-01-30T11:53:09;11.35;;;9.65;;
434;SDS011;204;48.942;9.256;2024-01-30T11:55:35;9.05;;;8.57;;
434;SDS011;204;48.942;9.256;2024-01-30T11:58:02;11.32;;;9.13;;
434;SDS011;204;48.942;9.256;2024-01-30T12:00:29;9.70;;;9.20;;
434;SDS011;204;48.942;9.256;2024-01-30T12:02:56;11.77;;;9.63;;
434;SDS011;204;48.942;9.256;2024-01-30T12:05:22;12.83;;;9.83;;
434;SDS011;204;48.942;9.256;2024-01-30T12:07:51;11.90;;;9.82;;
434;SDS011;204;48.942;9.256;2024-01-30T12:10:17;13.10;;;10.03;;
434;SDS011;204;48.942;9.256;2024-01-30T12:12:47;11.35;;;8.55;;
434;SDS011;204;48.942;9.256;2024-01-30T12:15:14;9.73;;;9.23;;
434;SDS011;204;48.942;9.256;2024-01-30T12:17:40;12.82;;;8.45;;
434;SDS011;204;48.942;9.256;2024-01-30T12:20:07;12.53;;;8.97;;
434;SDS011;204;48.942;9.256;2024-01-30T12:22:37;9.38;;;8.88;;
434;SDS011;204;48.942;9.256;2024-01-30T12:25:10;10.98;;;9.90;;
434;SDS011;204;48.942;9.256;2024-01-30T12:27:38;9.73;;;8.10;;
434;SDS011;204;48.942;9.256;2024-01-30T12:30:05;10.73;;;8.45;;
434;SDS011;204;48.942;9.256;2024-01-30T12:32:33;10.18;;;8.80;;
434;SDS011;204;48.942;9.256;2024-01-30T12:35:07;9.50;;;9.05;;
434;SDS011;204;48.942;9.256;2024-01-30T12:37:36;10.90;;;10.07;;
434;SDS011;204;48.942;9.256;2024-01-30T12:40:02;14.95;;;9.93;;
434;SDS011;204;48.942;9.256;2024-01-30T12:42:28;10.20;;;9.75;;
434;SDS011;204;48.942;9.256;2024-01-30T12:44:54;11.73;;;9.00;;
434;SDS011;204;48.942;9.256;2024-01-30T12:47:25;14.38;;;9.73;;
434;SDS011;204;48.942;9.256;2024-01-30T12:49:51;12.82;;;9.95;;
434;SDS011;204;48.942;9.256;2024-01-30T12:52:18;12.13;;;9.38;;
434;SDS011;204;48.942;9.256;2024-01-30T12:54:45;15.20;;;9.68;;
434;SDS011;204;48.942;9.256;2024-01-30T12:57:11;10.27;;;9.27;;
434;SDS011;204;48.942;9.256;2024-01-30T12:59:36;15.63;;;10.07;;
434;SDS011;204;48.942;9.256;2024-01-30T13:02:02;16.57;;;10.83;;
434;SDS011;204;48.942;9.256;2024-01-30T13:04:28;15.30;;;11.03;;
434;SDS011;204;48.942;9.256;2024-01-30T13:06:54;14.93;;;9.82;;
434;SDS011;204;48.942;9.256;2024-01-30T13:09:20;19.37;;;10.27;;
434;SDS011;204;48.942;9.256;2024-01-30T13:11:46;16.57;;;11.20;;
434;SDS011;204;48.942;9.256;2024-01-30T13:14:11;12.63;;;10.50;;
434;SDS011;204;48.942;9.256;2024-01-30T13:16:37;16.90;;;11.50;;
434;SDS011;204;48.942;9.256;2024-01-30T13:19:03;12.67;;;10.70;;
434;SDS011;204;48.942;9.256;2024-01-30T13:21:28;22.03;;;11.40;;
434;SDS011;204;48.942;9.256;2024-01-30T13:23:54;14.57;;;10.30;;
434;SDS011;204;48.942;9.256;2024-01-30T13:26:20;17.97;;;11.43;;
434;SDS011;204;48.942;9.256;2024-01-30T13:28:46;13.80;;;11.43;;
434;SDS011;204;48.942;9.256;2024-01-30T13:31:12;15.00;;;10.40;;
434;SDS011;204;48.942;9.256;2024-01-30T13:33:39;17.85;;;11.15;;
434;SDS011;204;48.942;9.256;2024-01-30T13:36:05;16.57;;;11.30;;
434;SDS011;204;48.942;9.256;2024-01-30T13:38:31;12.50;;;10.82;;
434;SDS011;204;48.942;9.256;2024-01-30T13:40:58;16.50;;;11.43;;
434;SDS011;204;48.942;9.256;2024-01-30T13:43:23;15.60;;;12.00;;
434;SDS011;204;48.942;9.256;2024-01-30T13:45:49;13.37;;;11.80;;
434;SDS011;204;48.942;9.256;2024-01-30T13:48:14;11.80;;;11.27;;
434;SDS011;204;48.942;9.256;2024-01-30T13:50:40;13.90;;;12.33;;
434;SDS011;204;48.942;9.256;2024-01-30T13:53:05;11.70;;;10.37;;
434;SDS011;204;48.942;9.256;2024-01-30T13:55:31;16.40;;;12.23;;
434;SDS011;204;48.942;9.256;2024-01-30T13:57:57;14.50;;;11.47;;
434;SDS011;204;48.942;9.256;2024-01-30T14:00:23;14.03;;;10.63;;
434;SDS011;204;48.942;9.256;2024-01-30T14:02:50;13.40;;;10.95;;
434;SDS011;204;48.942;9.256;2024-01-30T14:05:16;17.63;;;11.53;;
434;SDS011;204;48.942;9.256;2024-01-30T14:07:41;14.00;;;10.87;;
434;SDS011;204;48.942;9.256;2024-01-30T14:10:09;14.65;;;10.68;;
434;SDS011;204;48.942;9.256;2024-01-30T14:12:36;17.33;;;10.70;;
434;SDS011;204;48.942;9.256;2024-01-30T14:15:02;21.80;;;12.07;;
434;SDS011;204;48.942;9.256;2024-01-30T14:17:27;22.93;;;10.97;;
434;SDS011;204;48.942;9.256;2024-01-30T14:19:53;14.17;;;10.53;;
434;SDS011;204;48.942;9.256;2024-01-30T14:22:18;17.67;;;11.90;;
434;SDS011;204;48.942;9.256;2024-01-30T14:24:44;15.87;;;10.50;;
434;SDS011;204;48.942;9.256;2024-01-30T14:27:10;17.05;;;11.52;;
434;SDS011;204;48.942;9.256;2024-01-30T14:29:36;19.43;;;11.83;;
434;SDS011;204;48.942;9.256;2024-01-30T14:32:01;11.90;;;10.00;;
434;SDS011;204;48.942;9.256;2024-01-30T14:34:29;12.55;;;9.80;;
434;SDS011;204;48.942;9.256;2024-01-30T14:36:54;12.87;;;9.53;;
434;SDS011;204;48.942;9.256;2024-01-30T14:39:20;21.23;;;11.10;;
434;SDS011;204;48.942;9.256;2024-01-30T14:41:45;11.37;;;9.97;;
434;SDS011;204;48.942;9.256;2024-01-30T14:44:11;11.27;;;10.17;;
434;SDS011;204;48.942;9.256;2024-01-30T14:46:37;16.40;;;10.33;;
434;SDS011;204;48.942;9.256;2024-01-30T14:49:03;16.77;;;10.43;;
434;SDS011;204;48.942;9.256;2024-01-30T14:51:32;18.25;;;11.95;;
434;SDS011;204;48.942;9.256;2024-01-30T14:53:58;22.50;;;12.30;;
434;SDS011;204;48.942;9.256;2024-01-30T14:56:25;15.98;;;9.52;;
434;SDS011;204;48.942;9.256;2024-01-30T14:58:51;14.77;;;10.63;;
434;SDS011;204;48.942;9.256;2024-01-30T15:01:17;33.93;;;12.07;;
434;SDS011;204;48.942;9.256;2024-01-30T15:03:44;13.20;;;10.80;;
434;SDS011;204;48.942;9.256;2024-01-30T15:06:09;16.33;;;11.03;;
434;SDS011;204;48.942;9.256;2024-01-30T15:08:37;17.40;;;11.25;;
434;SDS011;204;48.942;9.256;2024-01-30T15:11:03;16.73;;;10.40;;
434;SDS011;204;48.942;9.256;2024-01-30T15:13:29;18.23;;;10.75;;